createdAt,value
2023-02-11T00:00:07.308Z,-3.30
2023-02-11T00:02:35.445Z,-3.30
2023-02-11T00:05:03.735Z,-3.30
2023-02-11T00:07:33.197Z,-3.30
2023-02-11T00:10:01.388Z,-3.20
2023-02-11T00:12:29.958Z,-3.20
2023-02-11T00:14:57.961Z,-3.10
2023-02-11T00:17:25.942Z,-3.00
2023-02-11T00:19:54.292Z,-3.00
2023-02-11T00:22:22.524Z,-3.00
2023-02-11T00:24:50.509Z,-3.10
2023-02-11T00:27:18.504Z,-3.30
2023-02-11T00:29:46.479Z,-3.40
2023-02-11T00:32:14.531Z,-3.30
2023-02-11T00:34:42.519Z,-3.30
2023-02-11T00:37:10.514Z,-3.30
2023-02-11T00:39:38.479Z,-3.30
2023-02-11T00:42:06.532Z,-3.40
2023-02-11T00:44:34.475Z,-3.40
2023-02-11T00:47:02.369Z,-3.40
2023-02-11T00:49:30.292Z,-3.40
2023-02-11T00:51:58.170Z,-3.40
2023-02-11T00:54:27.862Z,-3.40
2023-02-11T00:56:57.619Z,-3.40
2023-02-11T00:59:25.880Z,-3.30
2023-02-11T01:01:53.866Z,-3.40
2023-02-11T01:04:21.889Z,-3.30
2023-02-11T01:06:52.949Z,-3.30
2023-02-11T01:09:22.257Z,-3.30
2023-02-11T01:11:50.254Z,-3.20
2023-02-11T01:14:18.255Z,-3.10
2023-02-11T01:16:46.205Z,-3.10
2023-02-11T01:19:14.666Z,-3.10
2023-02-11T01:21:42.599Z,-3.00
2023-02-11T01:24:10.571Z,-3.00
2023-02-11T01:26:38.670Z,-3.00
2023-02-11T01:29:06.864Z,-3.00
2023-02-11T01:31:34.955Z,-3.00
2023-02-11T01:34:03.007Z,-2.90
2023-02-11T01:36:31.169Z,-2.90
2023-02-11T01:39:01.629Z,-2.90
2023-02-11T01:41:29.566Z,-2.90
2023-02-11T01:43:59.802Z,-2.80
2023-02-11T01:46:39.113Z,-2.90
2023-02-11T01:49:19.598Z,-3.00
2023-02-11T01:52:18.690Z,-3.10
2023-02-11T01:55:14.895Z,-3.10
2023-02-11T01:57:46.468Z,-3.10
2023-02-11T02:00:25.634Z,-3.10
2023-02-11T02:03:10.488Z,-3.10
2023-02-11T02:05:57.061Z,-3.00
2023-02-11T02:08:44.925Z,-2.90
2023-02-11T02:11:13.104Z,-3.00
2023-02-11T02:13:41.131Z,-3.00
2023-02-11T02:16:14.313Z,-2.90
2023-02-11T02:18:57.292Z,-2.80
2023-02-11T02:22:02.328Z,-2.80
2023-02-11T02:24:52.266Z,-2.80
2023-02-11T02:27:41.302Z,-2.80
2023-02-11T02:30:29.535Z,-2.80
2023-02-11T02:33:23.344Z,-2.80
2023-02-11T02:36:23.772Z,-2.80
2023-02-11T02:38:56.891Z,-2.80
2023-02-11T02:41:29.109Z,-2.80
2023-02-11T02:43:57.408Z,-2.90
2023-02-11T02:46:28.328Z,-3.00
2023-02-11T02:48:57.361Z,-2.90
2023-02-11T02:51:41.641Z,-2.90
2023-02-11T02:54:28.442Z,-2.80
2023-02-11T02:57:05.225Z,-2.70
2023-02-11T02:59:52.019Z,-2.80
2023-02-11T03:02:48.988Z,-2.80
2023-02-11T03:05:31.056Z,-2.80
2023-02-11T03:08:20.085Z,-2.70
2023-02-11T03:10:51.360Z,-2.60
2023-02-11T03:13:20.852Z,-2.40
2023-02-11T03:15:53.435Z,-2.40
2023-02-11T03:18:26.079Z,-2.30
2023-02-11T03:20:57.508Z,-2.30
2023-02-11T03:23:31.919Z,-2.30
2023-02-11T03:26:15.621Z,-2.20
2023-02-11T03:29:17.538Z,-2.10
2023-02-11T03:32:09.294Z,-2.10
2023-02-11T03:34:41.215Z,-2.00
2023-02-11T03:37:34.470Z,-2.00
2023-02-11T03:40:15.815Z,-2.00
2023-02-11T03:42:49.894Z,-2.10
2023-02-11T03:45:21.129Z,-2.10
2023-02-11T03:47:52.379Z,-2.10
2023-02-11T03:50:25.687Z,-2.00
2023-02-11T03:52:56.747Z,-1.90
2023-02-11T03:55:27.070Z,-1.80
2023-02-11T03:57:55.120Z,-1.70
2023-02-11T04:00:55.104Z,-1.60
2023-02-11T04:03:23.143Z,-1.60
2023-02-11T04:05:51.397Z,-1.50
2023-02-11T04:08:19.520Z,-1.50
2023-02-11T04:10:47.424Z,-1.40
2023-02-11T04:13:16.223Z,-1.40
2023-02-11T04:15:44.131Z,-1.40
2023-02-11T04:18:12.068Z,-1.40
2023-02-11T04:20:39.956Z,-1.40
2023-02-11T04:23:07.868Z,-1.50
2023-02-11T04:25:35.756Z,-1.60
2023-02-11T04:28:03.784Z,-1.60
2023-02-11T04:30:31.680Z,-1.50
2023-02-11T04:33:00.290Z,-1.40
2023-02-11T04:35:28.265Z,-1.40
2023-02-11T04:37:56.208Z,-1.30
2023-02-11T04:40:24.040Z,-1.30
2023-02-11T04:42:51.928Z,-1.40
2023-02-11T04:45:19.868Z,-1.40
2023-02-11T04:47:47.812Z,-1.40
2023-02-11T04:50:15.863Z,-1.40
2023-02-11T04:52:43.773Z,-1.30
2023-02-11T04:55:19.078Z,-1.20
2023-02-11T04:57:46.970Z,-1.10
2023-02-11T05:00:15.472Z,-1.10
2023-02-11T05:02:43.456Z,-1.00
2023-02-11T05:05:11.336Z,-1.00
2023-02-11T05:07:39.316Z,-1.00
2023-02-11T05:10:07.445Z,-1.00
2023-02-11T05:12:35.395Z,-1.00
2023-02-11T05:15:03.248Z,-1.00
2023-02-11T05:17:31.104Z,-1.00
2023-02-11T05:19:59.005Z,-1.00
2023-02-11T05:22:27.133Z,-1.00
2023-02-11T05:24:55.008Z,-1.10
2023-02-11T05:27:22.868Z,-1.10
2023-02-11T05:29:50.857Z,-1.10
2023-02-11T05:32:18.746Z,-1.10
2023-02-11T05:34:46.707Z,-1.10
2023-02-11T05:37:14.655Z,-1.00
2023-02-11T05:39:42.727Z,-0.90
2023-02-11T05:42:10.943Z,-0.80
2023-02-11T05:44:39.211Z,-0.70
2023-02-11T05:47:09.689Z,-0.70
2023-02-11T05:49:37.596Z,-0.70
2023-02-11T05:52:05.796Z,-0.70
2023-02-11T05:54:33.714Z,-0.60
2023-02-11T05:57:01.605Z,-0.60
2023-02-11T05:59:29.617Z,-0.60
2023-02-11T06:01:57.483Z,-0.70
2023-02-11T06:04:25.408Z,-0.70
2023-02-11T06:06:53.291Z,-0.70
2023-02-11T06:09:21.299Z,-0.70
2023-02-11T06:11:49.218Z,-0.80
2023-02-11T06:14:17.159Z,-0.80
2023-02-11T06:16:45.172Z,-0.90
2023-02-11T06:19:13.805Z,-0.80
2023-02-11T06:21:44.193Z,-0.80
2023-02-11T06:24:13.000Z,-0.80
2023-02-11T06:26:40.996Z,-0.90
2023-02-11T06:29:09.221Z,-0.90
2023-02-11T06:31:39.118Z,-0.90
2023-02-11T06:34:07.511Z,-1.10
2023-02-11T06:36:35.970Z,-1.10
2023-02-11T06:39:04.417Z,-1.20
2023-02-11T06:41:32.434Z,-1.10
2023-02-11T06:44:00.363Z,-1.10
2023-02-11T06:46:28.297Z,-1.10
2023-02-11T06:48:56.297Z,-1.10
2023-02-11T06:51:24.238Z,-1.10
2023-02-11T06:53:52.192Z,-1.10
2023-02-11T06:56:22.480Z,-1.10
2023-02-11T06:58:54.467Z,-1.10
2023-02-11T07:01:25.625Z,-1.10
2023-02-11T07:03:53.713Z,-1.00
2023-02-11T07:06:24.207Z,-1.00
2023-02-11T07:08:53.200Z,-0.90
2023-02-11T07:11:27.316Z,-0.90
2023-02-11T07:13:58.326Z,-0.80
2023-02-11T07:16:26.234Z,-0.90
2023-02-11T07:18:54.255Z,-0.90
2023-02-11T07:21:23.753Z,-0.60
2023-02-11T07:23:52.091Z,-0.30
2023-02-11T07:26:24.153Z,0.00
2023-02-11T07:28:52.638Z,0.30
2023-02-11T07:31:27.065Z,0.70
2023-02-11T07:33:57.131Z,1.40
2023-02-11T07:36:25.361Z,2.10
2023-02-11T07:38:53.269Z,2.70
2023-02-11T07:41:22.904Z,2.60
2023-02-11T07:43:51.444Z,2.60
2023-02-11T07:46:20.749Z,2.50
2023-02-11T07:48:49.265Z,2.30
2023-02-11T07:51:28.762Z,2.20
2023-02-11T07:53:58.806Z,2.00
2023-02-11T07:56:27.417Z,2.00
2023-02-11T07:59:00.386Z,2.00
2023-02-11T08:01:29.557Z,2.10
2023-02-11T08:03:59.411Z,2.30
2023-02-11T08:06:30.217Z,2.50
2023-02-11T08:08:59.135Z,2.30
2023-02-11T08:11:29.527Z,2.20
2023-02-11T08:13:58.482Z,2.20
2023-02-11T08:16:37.671Z,2.30
2023-02-11T08:19:08.897Z,2.10
2023-02-11T08:21:36.913Z,2.10
2023-02-11T08:24:08.502Z,2.10
2023-02-11T08:26:37.446Z,2.20
2023-02-11T08:29:10.104Z,2.40
2023-02-11T08:31:41.146Z,2.40
2023-02-11T08:34:09.524Z,2.50
2023-02-11T08:36:39.655Z,2.50
2023-02-11T08:39:19.206Z,2.60
2023-02-11T08:41:58.666Z,2.60
2023-02-11T08:44:27.063Z,2.60
2023-02-11T08:46:55.673Z,2.70
2023-02-11T08:49:24.047Z,2.80
2023-02-11T08:51:52.193Z,2.80
2023-02-11T08:54:20.206Z,2.90
2023-02-11T08:56:52.593Z,3.10
2023-02-11T08:59:20.516Z,3.20
2023-02-11T09:01:48.851Z,3.30
2023-02-11T09:04:16.917Z,3.40
2023-02-11T09:06:44.829Z,3.50
2023-02-11T09:09:14.968Z,3.50
2023-02-11T09:11:44.590Z,3.60
2023-02-11T09:14:21.579Z,3.60
2023-02-11T09:16:50.073Z,3.90
2023-02-11T09:19:18.954Z,4.10
2023-02-11T09:21:47.090Z,4.40
2023-02-11T09:24:15.033Z,4.60
2023-02-11T09:26:44.708Z,4.90
2023-02-11T09:29:12.700Z,5.50
2023-02-11T09:31:40.763Z,6.10
2023-02-11T09:34:09.244Z,6.60
2023-02-11T09:36:39.619Z,7.40
2023-02-11T09:39:10.989Z,7.50
2023-02-11T09:41:38.822Z,7.10
2023-02-11T09:44:10.616Z,7.10
2023-02-11T09:46:43.589Z,7.20
2023-02-11T09:49:23.422Z,7.00
2023-02-11T09:52:01.231Z,6.60
2023-02-11T09:55:09.300Z,6.40
2023-02-11T09:57:38.648Z,6.30
2023-02-11T10:00:29.695Z,6.20
2023-02-11T10:03:39.950Z,6.30
2023-02-11T10:06:26.627Z,6.20
2023-02-11T10:09:19.843Z,6.20
2023-02-11T10:12:20.171Z,6.00
2023-02-11T10:15:04.206Z,5.80
2023-02-11T10:18:01.271Z,5.70
2023-02-11T10:20:50.158Z,5.60
2023-02-11T10:23:23.502Z,5.70
2023-02-11T10:26:00.583Z,5.80
2023-02-11T10:28:35.071Z,5.90
2023-02-11T10:31:27.948Z,5.90
2023-02-11T10:34:08.404Z,6.10
2023-02-11T10:36:42.683Z,6.20
2023-02-11T10:39:25.588Z,6.30
2023-02-11T10:42:13.342Z,6.20
2023-02-11T10:44:49.196Z,6.30
2023-02-11T10:47:26.395Z,6.50
2023-02-11T10:49:54.672Z,6.70
2023-02-11T10:52:27.959Z,6.80
2023-02-11T10:55:05.042Z,6.80
2023-02-11T10:57:45.752Z,6.80
2023-02-11T11:00:22.064Z,6.70
2023-02-11T11:02:59.473Z,6.50
2023-02-11T11:05:53.274Z,6.40
2023-02-11T11:08:21.974Z,6.40
2023-02-11T11:11:04.927Z,6.30
2023-02-11T11:13:35.152Z,6.30
2023-02-11T11:16:17.680Z,6.30
2023-02-11T11:18:48.276Z,6.30
2023-02-11T11:21:47.101Z,6.20
2023-02-11T11:24:35.509Z,6.20
2023-02-11T11:27:05.441Z,6.20
2023-02-11T11:29:40.505Z,6.20
2023-02-11T11:32:26.465Z,6.30
2023-02-11T11:35:01.522Z,6.30
2023-02-11T11:37:31.968Z,6.30
2023-02-11T11:40:23.016Z,6.30
2023-02-11T11:43:23.516Z,6.30
2023-02-11T11:45:59.895Z,6.30
2023-02-11T11:48:32.599Z,6.30
2023-02-11T11:51:06.940Z,6.20
2023-02-11T11:53:53.739Z,6.20
2023-02-11T11:56:25.360Z,6.20
2023-02-11T11:58:54.195Z,6.30
2023-02-11T12:01:22.094Z,6.30
2023-02-11T12:04:11.785Z,6.30
2023-02-11T12:06:45.104Z,6.30
2023-02-11T12:09:41.959Z,6.40
2023-02-11T12:12:33.285Z,6.40
2023-02-11T12:15:12.952Z,6.40
2023-02-11T12:17:59.456Z,6.40
2023-02-11T12:20:34.621Z,6.40
2023-02-11T12:23:08.016Z,6.40
2023-02-11T12:25:46.811Z,6.50
2023-02-11T12:28:27.360Z,6.50
2023-02-11T12:31:13.529Z,6.50
2023-02-11T12:33:59.916Z,6.50
2023-02-11T12:36:59.250Z,6.50
2023-02-11T12:39:41.577Z,6.40
2023-02-11T12:42:46.885Z,6.40
2023-02-11T12:45:33.346Z,6.50
2023-02-11T12:48:07.085Z,6.40
2023-02-11T12:51:10.538Z,6.40
2023-02-11T12:54:00.101Z,6.50
2023-02-11T12:56:50.880Z,6.60
2023-02-11T12:59:47.220Z,6.70
2023-02-11T13:02:56.929Z,6.60
2023-02-11T13:05:39.140Z,6.60
2023-02-11T13:08:29.505Z,6.50
2023-02-11T13:11:05.305Z,6.40
2023-02-11T13:13:38.323Z,6.40
2023-02-11T13:16:13.109Z,6.30
2023-02-11T13:18:53.116Z,6.30
2023-02-11T13:21:26.595Z,6.30
2023-02-11T13:24:17.270Z,6.40
2023-02-11T13:26:53.564Z,6.40
2023-02-11T13:29:30.577Z,6.40
2023-02-11T13:32:14.542Z,6.50
2023-02-11T13:34:42.430Z,6.50
2023-02-11T13:37:39.817Z,6.50
2023-02-11T13:40:21.146Z,6.40
2023-02-11T13:42:54.906Z,6.40
2023-02-11T13:45:45.800Z,6.40
2023-02-11T13:48:35.834Z,6.40
2023-02-11T13:51:10.044Z,6.30
2023-02-11T13:53:53.330Z,6.20
2023-02-11T13:56:47.392Z,6.20
2023-02-11T13:59:28.542Z,6.20
2023-02-11T14:02:25.795Z,6.20
2023-02-11T14:05:34.970Z,6.20
2023-02-11T14:08:30.181Z,6.10
2023-02-11T14:11:28.525Z,6.10
2023-02-11T14:13:56.469Z,6.20
2023-02-11T14:16:37.585Z,6.10
2023-02-11T14:19:07.469Z,6.10
2023-02-11T14:21:41.700Z,6.20
2023-02-11T14:24:12.685Z,6.20
2023-02-11T14:27:06.700Z,6.30
2023-02-11T14:29:38.676Z,6.30
2023-02-11T14:32:15.040Z,6.30
2023-02-11T14:35:39.716Z,6.30
2023-02-11T14:38:46.760Z,6.30
2023-02-11T14:41:23.748Z,6.30
2023-02-11T14:43:56.768Z,6.30
2023-02-11T14:46:26.505Z,6.30
2023-02-11T14:48:58.387Z,6.20
2023-02-11T14:51:39.971Z,6.20
2023-02-11T14:54:17.147Z,6.20
2023-02-11T14:57:08.680Z,6.20
2023-02-11T14:59:36.854Z,6.20
2023-02-11T15:02:04.979Z,6.20
2023-02-11T15:04:37.513Z,6.10
2023-02-11T15:07:09.833Z,6.10
2023-02-11T15:09:55.446Z,6.10
2023-02-11T15:12:30.553Z,6.00
2023-02-11T15:15:01.235Z,6.00
2023-02-11T15:17:32.848Z,5.90
2023-02-11T15:20:03.640Z,5.90
2023-02-11T15:22:35.241Z,5.90
2023-02-11T15:25:13.084Z,6.00
2023-02-11T15:27:46.124Z,5.90
2023-02-11T15:30:23.150Z,5.90
2023-02-11T15:32:53.270Z,5.90
2023-02-11T15:35:21.462Z,5.90
2023-02-11T15:37:50.664Z,5.80
2023-02-11T15:40:24.896Z,5.80
2023-02-11T15:42:58.958Z,5.80
2023-02-11T15:45:47.410Z,5.80
2023-02-11T15:48:23.813Z,5.70
2023-02-11T15:50:59.849Z,5.70
2023-02-11T15:53:37.504Z,5.70
2023-02-11T15:56:12.813Z,5.70
2023-02-11T15:58:48.833Z,5.70
2023-02-11T16:01:19.385Z,5.70
2023-02-11T16:03:51.505Z,5.70
2023-02-11T16:06:30.527Z,5.70
2023-02-11T16:09:13.924Z,5.70
2023-02-11T16:12:01.860Z,5.70
2023-02-11T16:14:43.819Z,5.60
2023-02-11T16:17:26.741Z,5.60
2023-02-11T16:19:58.777Z,5.50
2023-02-11T16:22:39.151Z,5.50
2023-02-11T16:25:26.939Z,5.50
2023-02-11T16:27:55.890Z,5.50
2023-02-11T16:30:42.017Z,5.50
2023-02-11T16:33:12.349Z,5.40
2023-02-11T16:35:41.496Z,5.40
2023-02-11T16:38:09.404Z,5.40
2023-02-11T16:40:37.873Z,5.40
2023-02-11T16:43:08.727Z,5.40
2023-02-11T16:45:43.148Z,5.30
2023-02-11T16:48:16.226Z,5.30
2023-02-11T16:50:47.707Z,5.20
2023-02-11T16:53:21.061Z,5.20
2023-02-11T16:55:49.055Z,5.20
2023-02-11T16:58:17.071Z,5.20
2023-02-11T17:00:46.788Z,5.20
2023-02-11T17:03:24.082Z,5.20
2023-02-11T17:05:55.737Z,5.10
2023-02-11T17:08:24.321Z,5.00
2023-02-11T17:10:52.522Z,5.00
2023-02-11T17:13:20.794Z,5.00
2023-02-11T17:15:48.810Z,5.00
2023-02-11T17:18:16.746Z,5.10
2023-02-11T17:20:44.625Z,5.00
2023-02-11T17:23:12.559Z,5.00
2023-02-11T17:25:40.464Z,5.00
2023-02-11T17:28:10.270Z,5.00
2023-02-11T17:30:42.312Z,5.00
2023-02-11T17:33:10.627Z,5.00
2023-02-11T17:35:40.830Z,4.90
2023-02-11T17:38:08.789Z,4.90
2023-02-11T17:40:36.671Z,4.90
2023-02-11T17:43:05.305Z,4.90
2023-02-11T17:45:33.249Z,4.90
2023-02-11T17:48:01.371Z,4.90
2023-02-11T17:50:29.635Z,4.80
2023-02-11T17:52:58.026Z,4.90
2023-02-11T17:55:25.908Z,4.80
2023-02-11T17:57:53.875Z,4.80
2023-02-11T18:00:22.353Z,4.80
2023-02-11T18:02:50.270Z,4.80
2023-02-11T18:05:19.863Z,4.80
2023-02-11T18:07:53.611Z,4.70
2023-02-11T18:10:21.984Z,4.70
2023-02-11T18:12:49.866Z,4.70
2023-02-11T18:15:17.978Z,4.80
2023-02-11T18:17:46.016Z,4.80
2023-02-11T18:20:14.072Z,4.80
2023-02-11T18:22:43.215Z,4.80
2023-02-11T18:25:15.026Z,4.70
2023-02-11T18:27:43.208Z,4.80
2023-02-11T18:30:16.500Z,4.80
2023-02-11T18:32:44.739Z,4.80
2023-02-11T18:35:16.978Z,4.80
2023-02-11T18:37:44.923Z,4.80
2023-02-11T18:40:13.808Z,4.80
2023-02-11T18:42:41.909Z,4.80
2023-02-11T18:45:12.753Z,4.80
2023-02-11T18:47:40.851Z,4.80
2023-02-11T18:50:10.467Z,4.90
2023-02-11T18:52:39.557Z,4.90
2023-02-11T18:55:08.067Z,4.90
2023-02-11T18:57:36.062Z,5.00
2023-02-11T19:00:04.790Z,5.00
2023-02-11T19:02:32.767Z,5.00
2023-02-11T19:05:00.970Z,5.10
2023-02-11T19:07:28.921Z,5.10
2023-02-11T19:09:56.856Z,5.10
2023-02-11T19:12:24.841Z,5.10
2023-02-11T19:14:52.984Z,5.10
2023-02-11T19:17:20.967Z,5.20
2023-02-11T19:19:48.973Z,5.20
2023-02-11T19:22:18.106Z,5.20
2023-02-11T19:24:49.836Z,5.10
2023-02-11T19:27:17.852Z,5.20
2023-02-11T19:29:46.010Z,5.10
2023-02-11T19:32:13.951Z,5.10
2023-02-11T19:34:44.796Z,5.10
2023-02-11T19:37:19.669Z,5.10
2023-02-11T19:39:47.894Z,5.10
2023-02-11T19:42:20.284Z,5.10
2023-02-11T19:44:50.893Z,5.10
2023-02-11T19:47:30.723Z,5.10
2023-02-11T19:49:58.753Z,5.00
2023-02-11T19:52:29.313Z,5.00
2023-02-11T19:54:57.881Z,5.00
2023-02-11T19:57:25.737Z,4.90
2023-02-11T19:59:56.168Z,4.90
2023-02-11T20:02:24.961Z,4.90
2023-02-11T20:04:55.107Z,4.80
2023-02-11T20:07:26.988Z,4.80
2023-02-11T20:09:58.051Z,4.90
2023-02-11T20:12:26.100Z,4.80
2023-02-11T20:14:54.002Z,4.80
2023-02-11T20:17:22.012Z,4.80
2023-02-11T20:19:49.975Z,4.80
2023-02-11T20:22:18.749Z,4.80
2023-02-11T20:24:50.276Z,4.80
2023-02-11T20:27:20.136Z,4.80
2023-02-11T20:29:48.143Z,4.70
2023-02-11T20:32:18.939Z,4.70
2023-02-11T20:34:50.216Z,4.80
2023-02-11T20:37:18.907Z,4.70
2023-02-11T20:39:46.867Z,4.80
2023-02-11T20:42:16.059Z,4.80
2023-02-11T20:44:44.026Z,4.80
2023-02-11T20:47:13.340Z,4.80
2023-02-11T20:49:41.208Z,4.70
2023-02-11T20:52:09.404Z,4.80
2023-02-11T20:54:37.330Z,4.80
2023-02-11T20:57:05.295Z,4.70
2023-02-11T20:59:33.409Z,4.70
2023-02-11T21:02:02.574Z,4.70
2023-02-11T21:04:31.654Z,4.70
2023-02-11T21:07:01.714Z,4.80
2023-02-11T21:09:32.453Z,4.80
2023-02-11T21:12:01.579Z,4.80
2023-02-11T21:14:30.111Z,4.80
2023-02-11T21:16:58.587Z,4.80
2023-02-11T21:19:26.556Z,4.70
2023-02-11T21:21:58.380Z,4.70
2023-02-11T21:24:26.493Z,4.70
2023-02-11T21:26:54.383Z,4.70
2023-02-11T21:29:22.325Z,4.70
2023-02-11T21:31:53.640Z,4.70
2023-02-11T21:34:21.986Z,4.80
2023-02-11T21:36:52.137Z,4.70
2023-02-11T21:39:21.320Z,4.70
2023-02-11T21:41:49.216Z,4.70
2023-02-11T21:44:17.249Z,4.70
2023-02-11T21:46:45.650Z,4.70
2023-02-11T21:49:13.720Z,4.70
2023-02-11T21:51:41.809Z,4.70
2023-02-11T21:54:09.736Z,4.70
2023-02-11T21:56:38.447Z,4.70
2023-02-11T21:59:06.355Z,4.60
2023-02-11T22:01:36.600Z,4.70
2023-02-11T22:04:04.938Z,4.70
2023-02-11T22:06:37.700Z,4.70
2023-02-11T22:09:10.867Z,4.70
2023-02-11T22:11:39.088Z,4.70
2023-02-11T22:14:07.074Z,4.70
2023-02-11T22:16:35.284Z,4.70
2023-02-11T22:19:08.445Z,4.70
2023-02-11T22:21:36.574Z,4.70
2023-02-11T22:24:04.641Z,4.60
2023-02-11T22:26:32.728Z,4.60
2023-02-11T22:29:00.615Z,4.70
2023-02-11T22:31:35.426Z,4.70
2023-02-11T22:34:07.080Z,4.70
2023-02-11T22:36:38.002Z,4.70
2023-02-11T22:39:08.924Z,4.60
2023-02-11T22:41:36.927Z,4.60
2023-02-11T22:44:05.303Z,4.60
2023-02-11T22:46:33.396Z,4.50
2023-02-11T22:49:01.312Z,4.50
2023-02-11T22:51:31.087Z,4.50
2023-02-11T22:54:01.698Z,4.40
2023-02-11T22:56:30.929Z,4.40
2023-02-11T22:59:03.047Z,4.30
2023-02-11T23:01:32.008Z,4.30
2023-02-11T23:04:05.493Z,4.40
2023-02-11T23:06:33.489Z,4.40
2023-02-11T23:09:01.460Z,4.40
2023-02-11T23:11:31.723Z,4.30
2023-02-11T23:14:02.681Z,4.30
2023-02-11T23:16:36.252Z,4.20
2023-02-11T23:19:08.136Z,4.10
2023-02-11T23:21:39.167Z,4.10
2023-02-11T23:24:12.139Z,4.10
2023-02-11T23:26:42.006Z,4.10
2023-02-11T23:29:10.720Z,4.00
2023-02-11T23:31:41.514Z,3.90
2023-02-11T23:34:09.967Z,3.80
2023-02-11T23:36:38.286Z,3.70
2023-02-11T23:39:06.612Z,3.70
2023-02-11T23:41:34.521Z,3.60
2023-02-11T23:44:02.569Z,3.50
2023-02-11T23:46:30.486Z,3.50
2023-02-11T23:48:58.517Z,3.60
2023-02-11T23:51:26.447Z,3.60
2023-02-11T23:53:57.151Z,3.50
2023-02-11T23:56:27.853Z,3.50
2023-02-11T23:58:58.413Z,3.50
